George Airport
FAGG : now visible

Airfield :











YOU CAN JOIN US ON...

 
LOGIN :

Register | Disclaimer

   EN    FR    IT 

 









Legend :    VFR   Marginal VFR   IFR   Intensive IFR   Very Intensive IFR
Visi :
Ceiling :
>= 8 km
>= 3000ft
5 to 8 km
1000 to 3000 ft
1500m to 5 km
500 to 1000 ft
800 to 1500m
200 to 500 ft
< 800m
< 200 ft
Symbols :   Thunderstorms  Fog  Heavy snow  Heavy precipitations  Wind > 20 kt







- Airport Elevation : 648 ft
- IATA code : GRJ


FAGG - George

CURRENT METAR :
  • 241042Z 28004KT 240V320 9999 FEW005 SCT010 BKN014 15/12 Q1019

EXPIRED METARs :
  • 241000Z 23005KT 190V260 9999 SCT003 BKN006 13/11 Q1020
  • 240944Z 22006KT 9999 SCT002 BKN005 13/11 Q1020
  • 240916Z 23006KT 190V260 5000 BR BKN002 OVC004 12/11 Q1020
  • 240900Z 22007KT 190V250 0800 R29/1500D FG VV002 12/10 Q1020
  • 240853Z 22007KT 0800 R29/1500D FG VV002 12/10 Q1020
  • 240841Z 24007KT 190V250 1400 R29/P2000N BR BKN002 12/10 Q1019
  • 240831Z 22008KT 2300 BR BKN002 12/10 Q1019
  • 240800Z 22005KT 9999 FEW002 12/10 Q1018

TAF TAF FAGG
Valid from the 24 at 06:00 until the 25 at 06:00 UTC


240913Z 2406/2506 22008KT 2700 BR BKN002 OVC004 TX18/2412Z TN10/2406Z
BECMG 2409/2411 7000 FEW002 BKN012
FM241200 27010KT 9999 SCT025
FM242000 28008KT 9999 SCT010 BKN020
PROB30
TEMPO 2421/2504 4500 -RA BKN010
BECMG 2502/2504 06013KT
FACA FIR / Africa



MET'MAP, your aeronautical weather chart ! - Copyright ORBIFLY December 2007 - Disclaimer

ORBIFLY MET'MAP TEAM :

Programming & Development : Alexandra Zaïnal
Concept & Development : Baudouin d'Aumeries
Co-Development & Prog : Marc-Olivier Méhu
Technical & hardware support : Manuel Goepfert

Contact : metmap@orbifly.com




SOURCES & CREDITS :

   NOAA       Earth
Advisory